sensor_id;sensor_type;location;lat;lon;timestamp;temperature;humidity
24772;DHT22;12870;52.274;9.754;2024-03-29T00:00:35;9.50;99.90
24772;DHT22;12870;52.274;9.754;2024-03-29T00:03:01;9.50;99.90
24772;DHT22;12870;52.274;9.754;2024-03-29T00:05:26;9.50;99.90
24772;DHT22;12870;52.274;9.754;2024-03-29T00:07:52;9.60;99.90
24772;DHT22;12870;52.274;9.754;2024-03-29T00:10:17;9.60;99.90
24772;DHT22;12870;52.274;9.754;2024-03-29T00:12:43;9.50;99.90
24772;DHT22;12870;52.274;9.754;2024-03-29T00:15:08;9.50;99.90
24772;DHT22;12870;52.274;9.754;2024-03-29T00:17:34;9.50;99.90
24772;DHT22;12870;52.274;9.754;2024-03-29T00:19:59;9.50;99.90
24772;DHT22;12870;52.274;9.754;2024-03-29T00:22:25;9.60;99.90
24772;DHT22;12870;52.274;9.754;2024-03-29T00:24:50;9.50;99.90
24772;DHT22;12870;52.274;9.754;2024-03-29T00:27:16;9.50;99.90
24772;DHT22;12870;52.274;9.754;2024-03-29T00:29:41;9.60;99.90
24772;DHT22;12870;52.274;9.754;2024-03-29T00:32:09;9.50;99.90
24772;DHT22;12870;52.274;9.754;2024-03-29T00:34:34;9.50;99.90
24772;DHT22;12870;52.274;9.754;2024-03-29T00:37:00;9.50;99.90
24772;DHT22;12870;52.274;9.754;2024-03-29T00:39:25;9.40;99.90
24772;DHT22;12870;52.274;9.754;2024-03-29T00:41:51;9.40;99.90
24772;DHT22;12870;52.274;9.754;2024-03-29T00:44:16;9.40;99.90
24772;DHT22;12870;52.274;9.754;2024-03-29T00:46:42;9.30;99.90
24772;DHT22;12870;52.274;9.754;2024-03-29T00:49:07;9.30;99.90
24772;DHT22;12870;52.274;9.754;2024-03-29T00:51:33;9.20;99.90
24772;DHT22;12870;52.274;9.754;2024-03-29T00:53:58;9.20;99.90
24772;DHT22;12870;52.274;9.754;2024-03-29T00:56:24;9.20;99.90
24772;DHT22;12870;52.274;9.754;2024-03-29T00:58:49;9.20;99.90
24772;DHT22;12870;52.274;9.754;2024-03-29T01:01:15;9.10;99.90
24772;DHT22;12870;52.274;9.754;2024-03-29T01:03:40;9.10;99.90
24772;DHT22;12870;52.274;9.754;2024-03-29T01:06:06;9.10;99.90
24772;DHT22;12870;52.274;9.754;2024-03-29T01:08:31;9.20;99.90
24772;DHT22;12870;52.274;9.754;2024-03-29T01:10:57;9.10;99.90
24772;DHT22;12870;52.274;9.754;2024-03-29T01:13:22;9.10;99.90
24772;DHT22;12870;52.274;9.754;2024-03-29T01:15:48;9.20;99.90
24772;DHT22;12870;52.274;9.754;2024-03-29T01:18:13;9.20;99.90
24772;DHT22;12870;52.274;9.754;2024-03-29T01:20:39;9.20;99.90
24772;DHT22;12870;52.274;9.754;2024-03-29T01:23:04;9.20;99.90
24772;DHT22;12870;52.274;9.754;2024-03-29T01:25:30;9.30;99.90
24772;DHT22;12870;52.274;9.754;2024-03-29T01:27:56;9.30;99.90
24772;DHT22;12870;52.274;9.754;2024-03-29T01:30:21;9.20;99.90
24772;DHT22;12870;52.274;9.754;2024-03-29T01:32:47;9.20;99.90
24772;DHT22;12870;52.274;9.754;2024-03-29T01:35:13;9.20;99.90
24772;DHT22;12870;52.274;9.754;2024-03-29T01:37:38;9.20;99.90
24772;DHT22;12870;52.274;9.754;2024-03-29T01:40:05;9.20;99.90
24772;DHT22;12870;52.274;9.754;2024-03-29T01:42:30;9.10;99.90
24772;DHT22;12870;52.274;9.754;2024-03-29T01:44:56;9.00;99.90
24772;DHT22;12870;52.274;9.754;2024-03-29T01:47:21;9.00;99.90
24772;DHT22;12870;52.274;9.754;2024-03-29T01:49:47;8.90;99.90
24772;DHT22;12870;52.274;9.754;2024-03-29T01:52:15;8.90;99.90
24772;DHT22;12870;52.274;9.754;2024-03-29T01:54:42;8.80;99.90
24772;DHT22;12870;52.274;9.754;2024-03-29T01:57:08;8.70;99.90
24772;DHT22;12870;52.274;9.754;2024-03-29T01:59:34;8.70;99.90
24772;DHT22;12870;52.274;9.754;2024-03-29T02:02:01;8.60;99.90
24772;DHT22;12870;52.274;9.754;2024-03-29T02:04:26;8.60;99.90
24772;DHT22;12870;52.274;9.754;2024-03-29T02:06:52;8.60;99.90
24772;DHT22;12870;52.274;9.754;2024-03-29T02:09:18;8.60;99.90
24772;DHT22;12870;52.274;9.754;2024-03-29T02:11:43;8.60;99.90
24772;DHT22;12870;52.274;9.754;2024-03-29T02:14:09;8.60;99.90
24772;DHT22;12870;52.274;9.754;2024-03-29T02:16:34;8.60;99.90
24772;DHT22;12870;52.274;9.754;2024-03-29T02:19:00;8.60;99.90
24772;DHT22;12870;52.274;9.754;2024-03-29T02:21:26;8.60;99.90
24772;DHT22;12870;52.274;9.754;2024-03-29T02:24:08;8.60;99.90
24772;DHT22;12870;52.274;9.754;2024-03-29T02:26:34;8.60;99.90
24772;DHT22;12870;52.274;9.754;2024-03-29T02:29:02;8.60;99.90
24772;DHT22;12870;52.274;9.754;2024-03-29T02:31:28;8.60;99.90
24772;DHT22;12870;52.274;9.754;2024-03-29T02:33:54;8.50;99.90
24772;DHT22;12870;52.274;9.754;2024-03-29T02:36:19;8.50;99.90
24772;DHT22;12870;52.274;9.754;2024-03-29T02:38:45;8.40;99.90
24772;DHT22;12870;52.274;9.754;2024-03-29T02:41:10;8.40;99.90
24772;DHT22;12870;52.274;9.754;2024-03-29T02:43:36;8.40;99.90
24772;DHT22;12870;52.274;9.754;2024-03-29T02:46:01;8.40;99.90
24772;DHT22;12870;52.274;9.754;2024-03-29T02:48:27;8.40;99.90
24772;DHT22;12870;52.274;9.754;2024-03-29T02:50:52;8.40;99.90
24772;DHT22;12870;52.274;9.754;2024-03-29T02:53:18;8.30;99.90
24772;DHT22;12870;52.274;9.754;2024-03-29T02:55:43;8.30;99.90
24772;DHT22;12870;52.274;9.754;2024-03-29T02:58:09;8.40;99.90
24772;DHT22;12870;52.274;9.754;2024-03-29T03:00:34;8.40;99.90
24772;DHT22;12870;52.274;9.754;2024-03-29T03:03:00;8.50;99.90
24772;DHT22;12870;52.274;9.754;2024-03-29T03:05:25;8.50;99.90
24772;DHT22;12870;52.274;9.754;2024-03-29T03:07:51;8.50;99.90
24772;DHT22;12870;52.274;9.754;2024-03-29T03:10:35;8.50;99.90
24772;DHT22;12870;52.274;9.754;2024-03-29T03:13:19;8.50;99.90
24772;DHT22;12870;52.274;9.754;2024-03-29T03:15:44;8.50;99.90
24772;DHT22;12870;52.274;9.754;2024-03-29T03:18:10;8.50;99.90
24772;DHT22;12870;52.274;9.754;2024-03-29T03:20:35;8.50;99.90
24772;DHT22;12870;52.274;9.754;2024-03-29T03:23:03;8.60;99.90
24772;DHT22;12870;52.274;9.754;2024-03-29T03:25:29;8.60;99.90
24772;DHT22;12870;52.274;9.754;2024-03-29T03:27:54;8.60;99.90
24772;DHT22;12870;52.274;9.754;2024-03-29T03:30:20;8.60;99.90
24772;DHT22;12870;52.274;9.754;2024-03-29T03:32:46;8.60;99.90
24772;DHT22;12870;52.274;9.754;2024-03-29T03:35:12;8.50;99.90
24772;DHT22;12870;52.274;9.754;2024-03-29T03:37:37;8.50;99.90
24772;DHT22;12870;52.274;9.754;2024-03-29T03:40:03;8.40;99.90
24772;DHT22;12870;52.274;9.754;2024-03-29T03:42:29;8.40;99.90
24772;DHT22;12870;52.274;9.754;2024-03-29T03:44:55;8.40;99.90
24772;DHT22;12870;52.274;9.754;2024-03-29T03:47:21;8.40;99.90
24772;DHT22;12870;52.274;9.754;2024-03-29T03:49:46;8.30;99.90
24772;DHT22;12870;52.274;9.754;2024-03-29T03:52:12;8.30;99.90
24772;DHT22;12870;52.274;9.754;2024-03-29T03:54:37;8.30;99.90
24772;DHT22;12870;52.274;9.754;2024-03-29T03:57:04;8.30;99.90
24772;DHT22;12870;52.274;9.754;2024-03-29T03:59:29;8.20;99.90
24772;DHT22;12870;52.274;9.754;2024-03-29T04:01:55;8.20;99.90
24772;DHT22;12870;52.274;9.754;2024-03-29T04:04:20;8.30;99.90
24772;DHT22;12870;52.274;9.754;2024-03-29T04:06:46;8.30;99.90
24772;DHT22;12870;52.274;9.754;2024-03-29T04:09:14;8.40;99.90
24772;DHT22;12870;52.274;9.754;2024-03-29T04:11:41;8.40;99.90
24772;DHT22;12870;52.274;9.754;2024-03-29T04:14:07;8.40;99.90
24772;DHT22;12870;52.274;9.754;2024-03-29T04:16:32;8.40;99.90
24772;DHT22;12870;52.274;9.754;2024-03-29T04:18:58;8.40;99.90
24772;DHT22;12870;52.274;9.754;2024-03-29T04:21:24;8.40;99.90
24772;DHT22;12870;52.274;9.754;2024-03-29T04:23:49;8.40;99.90
24772;DHT22;12870;52.274;9.754;2024-03-29T04:26:15;8.40;99.90
24772;DHT22;12870;52.274;9.754;2024-03-29T04:28:40;8.40;99.90
24772;DHT22;12870;52.274;9.754;2024-03-29T04:31:06;8.40;99.90
24772;DHT22;12870;52.274;9.754;2024-03-29T04:33:31;8.40;99.90
24772;DHT22;12870;52.274;9.754;2024-03-29T04:35:58;8.30;99.90
24772;DHT22;12870;52.274;9.754;2024-03-29T04:38:25;8.30;99.90
24772;DHT22;12870;52.274;9.754;2024-03-29T04:40:53;8.40;99.90
24772;DHT22;12870;52.274;9.754;2024-03-29T04:43:22;8.40;99.90
24772;DHT22;12870;52.274;9.754;2024-03-29T04:45:48;8.50;99.90
24772;DHT22;12870;52.274;9.754;2024-03-29T04:48:14;8.60;99.90
24772;DHT22;12870;52.274;9.754;2024-03-29T04:50:40;8.50;99.90
24772;DHT22;12870;52.274;9.754;2024-03-29T04:53:07;8.70;99.90
24772;DHT22;12870;52.274;9.754;2024-03-29T04:55:33;8.70;99.90
24772;DHT22;12870;52.274;9.754;2024-03-29T04:57:59;8.70;99.90
24772;DHT22;12870;52.274;9.754;2024-03-29T05:00:24;8.80;99.90
24772;DHT22;12870;52.274;9.754;2024-03-29T05:02:50;8.80;99.90
24772;DHT22;12870;52.274;9.754;2024-03-29T05:05:16;8.90;99.90
24772;DHT22;12870;52.274;9.754;2024-03-29T05:07:41;8.90;99.90
24772;DHT22;12870;52.274;9.754;2024-03-29T05:10:07;8.90;99.90
24772;DHT22;12870;52.274;9.754;2024-03-29T05:12:35;8.90;99.90
24772;DHT22;12870;52.274;9.754;2024-03-29T05:15:00;8.90;99.90
24772;DHT22;12870;52.274;9.754;2024-03-29T05:17:26;8.90;99.90
24772;DHT22;12870;52.274;9.754;2024-03-29T05:19:53;8.90;99.90
24772;DHT22;12870;52.274;9.754;2024-03-29T05:22:19;9.00;99.90
24772;DHT22;12870;52.274;9.754;2024-03-29T05:24:44;9.10;99.90
24772;DHT22;12870;52.274;9.754;2024-03-29T05:27:11;9.20;99.90
24772;DHT22;12870;52.274;9.754;2024-03-29T05:29:37;9.20;99.90
24772;DHT22;12870;52.274;9.754;2024-03-29T05:32:04;9.30;99.90
24772;DHT22;12870;52.274;9.754;2024-03-29T05:34:29;9.30;99.90
24772;DHT22;12870;52.274;9.754;2024-03-29T05:36:55;9.30;99.90
24772;DHT22;12870;52.274;9.754;2024-03-29T05:39:20;9.30;99.90
24772;DHT22;12870;52.274;9.754;2024-03-29T05:41:46;9.40;99.90
24772;DHT22;12870;52.274;9.754;2024-03-29T05:44:12;9.50;99.90
24772;DHT22;12870;52.274;9.754;2024-03-29T05:46:38;9.50;99.90
24772;DHT22;12870;52.274;9.754;2024-03-29T05:49:04;9.50;99.90
24772;DHT22;12870;52.274;9.754;2024-03-29T05:51:30;9.60;99.90
24772;DHT22;12870;52.274;9.754;2024-03-29T05:53:55;9.60;99.90
24772;DHT22;12870;52.274;9.754;2024-03-29T05:56:21;9.60;99.90
24772;DHT22;12870;52.274;9.754;2024-03-29T05:58:47;9.60;99.90
24772;DHT22;12870;52.274;9.754;2024-03-29T06:01:13;9.60;99.90
24772;DHT22;12870;52.274;9.754;2024-03-29T06:03:39;9.60;99.90
24772;DHT22;12870;52.274;9.754;2024-03-29T06:06:04;9.70;99.90
24772;DHT22;12870;52.274;9.754;2024-03-29T06:08:30;9.70;99.90
24772;DHT22;12870;52.274;9.754;2024-03-29T06:10:55;9.70;99.90
24772;DHT22;12870;52.274;9.754;2024-03-29T06:13:22;9.70;99.90
24772;DHT22;12870;52.274;9.754;2024-03-29T06:16:11;9.70;99.90
24772;DHT22;12870;52.274;9.754;2024-03-29T06:18:55;9.60;99.90
24772;DHT22;12870;52.274;9.754;2024-03-29T06:21:20;9.60;99.90
24772;DHT22;12870;52.274;9.754;2024-03-29T06:23:46;9.60;99.90
24772;DHT22;12870;52.274;9.754;2024-03-29T06:26:11;9.50;99.90
24772;DHT22;12870;52.274;9.754;2024-03-29T06:28:37;9.50;99.90
24772;DHT22;12870;52.274;9.754;2024-03-29T06:31:03;9.40;99.90
24772;DHT22;12870;52.274;9.754;2024-03-29T06:33:28;9.30;99.90
24772;DHT22;12870;52.274;9.754;2024-03-29T06:35:54;9.30;99.90
24772;DHT22;12870;52.274;9.754;2024-03-29T06:38:21;9.30;99.90
24772;DHT22;12870;52.274;9.754;2024-03-29T06:40:46;9.30;99.90
24772;DHT22;12870;52.274;9.754;2024-03-29T06:43:12;9.30;99.90
24772;DHT22;12870;52.274;9.754;2024-03-29T06:45:40;9.30;99.90
24772;DHT22;12870;52.274;9.754;2024-03-29T06:48:08;9.30;99.90
24772;DHT22;12870;52.274;9.754;2024-03-29T06:50:33;9.30;99.90
24772;DHT22;12870;52.274;9.754;2024-03-29T06:53:00;9.20;99.90
24772;DHT22;12870;52.274;9.754;2024-03-29T06:55:25;9.20;99.90
24772;DHT22;12870;52.274;9.754;2024-03-29T06:57:51;9.20;99.90
24772;DHT22;12870;52.274;9.754;2024-03-29T07:00:17;9.20;99.90
24772;DHT22;12870;52.274;9.754;2024-03-29T07:02:42;9.20;99.90
24772;DHT22;12870;52.274;9.754;2024-03-29T07:05:09;9.20;99.90
24772;DHT22;12870;52.274;9.754;2024-03-29T07:07:37;9.20;99.90
24772;DHT22;12870;52.274;9.754;2024-03-29T07:10:03;9.20;99.90
24772;DHT22;12870;52.274;9.754;2024-03-29T07:12:28;9.20;99.90
24772;DHT22;12870;52.274;9.754;2024-03-29T07:14:54;9.20;99.90
24772;DHT22;12870;52.274;9.754;2024-03-29T07:17:20;9.20;99.90
24772;DHT22;12870;52.274;9.754;2024-03-29T07:19:46;9.20;99.90
24772;DHT22;12870;52.274;9.754;2024-03-29T07:22:11;9.20;99.90
24772;DHT22;12870;52.274;9.754;2024-03-29T07:24:38;9.20;99.90
24772;DHT22;12870;52.274;9.754;2024-03-29T07:27:03;9.20;99.90
24772;DHT22;12870;52.274;9.754;2024-03-29T07:29:29;9.20;99.90
24772;DHT22;12870;52.274;9.754;2024-03-29T07:31:55;9.30;99.90
24772;DHT22;12870;52.274;9.754;2024-03-29T07:34:20;9.30;99.90
24772;DHT22;12870;52.274;9.754;2024-03-29T07:36:46;9.30;99.90
24772;DHT22;12870;52.274;9.754;2024-03-29T07:39:11;9.20;99.90
24772;DHT22;12870;52.274;9.754;2024-03-29T07:41:37;9.30;99.90
24772;DHT22;12870;52.274;9.754;2024-03-29T07:44:03;9.30;99.90
24772;DHT22;12870;52.274;9.754;2024-03-29T07:46:32;9.30;99.90
24772;DHT22;12870;52.274;9.754;2024-03-29T07:48:59;9.30;99.90
24772;DHT22;12870;52.274;9.754;2024-03-29T07:51:24;9.30;99.90
24772;DHT22;12870;52.274;9.754;2024-03-29T07:53:50;9.40;99.90
24772;DHT22;12870;52.274;9.754;2024-03-29T07:56:16;9.40;99.90
24772;DHT22;12870;52.274;9.754;2024-03-29T07:58:42;9.50;99.90
24772;DHT22;12870;52.274;9.754;2024-03-29T08:01:08;9.60;99.90
24772;DHT22;12870;52.274;9.754;2024-03-29T08:03:33;9.70;99.90
24772;DHT22;12870;52.274;9.754;2024-03-29T08:06:03;9.70;99.90
24772;DHT22;12870;52.274;9.754;2024-03-29T08:08:30;9.80;99.90
24772;DHT22;12870;52.274;9.754;2024-03-29T08:10:56;9.90;99.90
24772;DHT22;12870;52.274;9.754;2024-03-29T08:13:21;10.00;99.90
24772;DHT22;12870;52.274;9.754;2024-03-29T08:15:48;10.00;99.90
24772;DHT22;12870;52.274;9.754;2024-03-29T08:18:13;10.10;99.90
24772;DHT22;12870;52.274;9.754;2024-03-29T08:20:39;10.20;99.90
24772;DHT22;12870;52.274;9.754;2024-03-29T08:23:05;10.40;99.90
24772;DHT22;12870;52.274;9.754;2024-03-29T08:25:30;10.50;99.90
24772;DHT22;12870;52.274;9.754;2024-03-29T08:27:56;10.50;99.90
24772;DHT22;12870;52.274;9.754;2024-03-29T08:30:25;10.60;99.90
24772;DHT22;12870;52.274;9.754;2024-03-29T08:32:51;10.60;99.90
24772;DHT22;12870;52.274;9.754;2024-03-29T08:35:18;10.60;99.90
24772;DHT22;12870;52.274;9.754;2024-03-29T08:37:43;10.70;99.90
24772;DHT22;12870;52.274;9.754;2024-03-29T08:40:10;10.70;99.90
24772;DHT22;12870;52.274;9.754;2024-03-29T08:42:35;10.80;99.90
24772;DHT22;12870;52.274;9.754;2024-03-29T08:45:03;10.90;99.90
24772;DHT22;12870;52.274;9.754;2024-03-29T08:47:31;10.80;99.90
24772;DHT22;12870;52.274;9.754;2024-03-29T08:49:57;10.90;99.90
24772;DHT22;12870;52.274;9.754;2024-03-29T08:52:22;10.90;99.90
24772;DHT22;12870;52.274;9.754;2024-03-29T08:54:48;11.00;99.90
24772;DHT22;12870;52.274;9.754;2024-03-29T08:57:13;11.10;99.90
24772;DHT22;12870;52.274;9.754;2024-03-29T08:59:39;11.10;99.90
24772;DHT22;12870;52.274;9.754;2024-03-29T09:02:06;11.20;99.90
24772;DHT22;12870;52.274;9.754;2024-03-29T09:04:32;11.10;99.90
24772;DHT22;12870;52.274;9.754;2024-03-29T09:07:01;11.00;99.90
24772;DHT22;12870;52.274;9.754;2024-03-29T09:09:31;11.20;99.90
24772;DHT22;12870;52.274;9.754;2024-03-29T09:11:57;11.20;99.90
24772;DHT22;12870;52.274;9.754;2024-03-29T09:14:22;11.30;99.90
24772;DHT22;12870;52.274;9.754;2024-03-29T09:16:48;11.20;99.90
24772;DHT22;12870;52.274;9.754;2024-03-29T09:19:13;11.20;99.90
24772;DHT22;12870;52.274;9.754;2024-03-29T09:21:40;11.30;99.90
24772;DHT22;12870;52.274;9.754;2024-03-29T09:24:05;11.30;99.90
24772;DHT22;12870;52.274;9.754;2024-03-29T09:26:32;11.50;99.90
24772;DHT22;12870;52.274;9.754;2024-03-29T09:28:58;11.60;99.90
24772;DHT22;12870;52.274;9.754;2024-03-29T09:31:23;11.60;99.90
24772;DHT22;12870;52.274;9.754;2024-03-29T09:33:49;11.70;99.90
24772;DHT22;12870;52.274;9.754;2024-03-29T09:36:21;11.70;99.90
24772;DHT22;12870;52.274;9.754;2024-03-29T09:38:51;11.80;99.90
24772;DHT22;12870;52.274;9.754;2024-03-29T09:41:18;11.80;99.90
24772;DHT22;12870;52.274;9.754;2024-03-29T09:43:46;11.90;99.90
24772;DHT22;12870;52.274;9.754;2024-03-29T09:46:13;12.00;99.90
24772;DHT22;12870;52.274;9.754;2024-03-29T09:48:42;11.90;99.90
24772;DHT22;12870;52.274;9.754;2024-03-29T09:51:09;12.00;99.90
24772;DHT22;12870;52.274;9.754;2024-03-29T09:53:37;12.10;99.90
24772;DHT22;12870;52.274;9.754;2024-03-29T09:56:06;12.20;99.90
24772;DHT22;12870;52.274;9.754;2024-03-29T09:58:33;12.30;99.90
24772;DHT22;12870;52.274;9.754;2024-03-29T10:00:58;12.40;99.90
24772;DHT22;12870;52.274;9.754;2024-03-29T10:03:25;12.40;99.90
24772;DHT22;12870;52.274;9.754;2024-03-29T10:05:58;12.40;99.90
24772;DHT22;12870;52.274;9.754;2024-03-29T10:08:28;12.50;99.90
24772;DHT22;12870;52.274;9.754;2024-03-29T10:10:56;12.60;99.90
24772;DHT22;12870;52.274;9.754;2024-03-29T10:13:21;12.60;99.90
24772;DHT22;12870;52.274;9.754;2024-03-29T10:15:49;12.70;99.90
24772;DHT22;12870;52.274;9.754;2024-03-29T10:18:16;12.80;99.90
24772;DHT22;12870;52.274;9.754;2024-03-29T10:20:43;12.70;99.90
24772;DHT22;12870;52.274;9.754;2024-03-29T10:23:09;12.80;99.90
24772;DHT22;12870;52.274;9.754;2024-03-29T10:25:34;12.80;99.90
24772;DHT22;12870;52.274;9.754;2024-03-29T10:28:00;12.80;99.90
24772;DHT22;12870;52.274;9.754;2024-03-29T10:30:29;13.00;99.90
24772;DHT22;12870;52.274;9.754;2024-03-29T10:32:57;13.10;99.90
24772;DHT22;12870;52.274;9.754;2024-03-29T10:35:25;13.10;99.90
24772;DHT22;12870;52.274;9.754;2024-03-29T10:37:54;13.20;99.90
24772;DHT22;12870;52.274;9.754;2024-03-29T10:40:21;13.30;99.90
24772;DHT22;12870;52.274;9.754;2024-03-29T10:42:49;13.30;99.90
24772;DHT22;12870;52.274;9.754;2024-03-29T10:45:15;13.40;99.90
24772;DHT22;12870;52.274;9.754;2024-03-29T10:47:43;13.50;99.90
24772;DHT22;12870;52.274;9.754;2024-03-29T10:50:12;13.70;99.90
24772;DHT22;12870;52.274;9.754;2024-03-29T10:52:39;13.70;99.90
24772;DHT22;12870;52.274;9.754;2024-03-29T10:55:08;13.80;99.90
24772;DHT22;12870;52.274;9.754;2024-03-29T10:57:34;13.70;99.90
24772;DHT22;12870;52.274;9.754;2024-03-29T11:00:17;13.80;99.90
24772;DHT22;12870;52.274;9.754;2024-03-29T11:02:55;13.60;99.90
24772;DHT22;12870;52.274;9.754;2024-03-29T11:05:23;13.60;99.90
24772;DHT22;12870;52.274;9.754;2024-03-29T11:07:50;13.70;99.90
24772;DHT22;12870;52.274;9.754;2024-03-29T11:15:41;13.90;99.90
24772;DHT22;12870;52.274;9.754;2024-03-29T11:18:09;13.90;99.90
24772;DHT22;12870;52.274;9.754;2024-03-29T11:20:35;13.90;99.90
24772;DHT22;12870;52.274;9.754;2024-03-29T11:23:11;14.00;99.90
24772;DHT22;12870;52.274;9.754;2024-03-29T11:25:38;14.00;99.90
24772;DHT22;12870;52.274;9.754;2024-03-29T11:28:06;14.00;99.90
24772;DHT22;12870;52.274;9.754;2024-03-29T11:30:40;14.10;99.90
24772;DHT22;12870;52.274;9.754;2024-03-29T11:33:05;14.10;99.90
24772;DHT22;12870;52.274;9.754;2024-03-29T11:35:31;14.00;99.90
24772;DHT22;12870;52.274;9.754;2024-03-29T11:38:01;14.10;99.90
24772;DHT22;12870;52.274;9.754;2024-03-29T11:40:30;14.10;99.90
24772;DHT22;12870;52.274;9.754;2024-03-29T11:42:55;14.20;99.90
24772;DHT22;12870;52.274;9.754;2024-03-29T11:45:26;14.30;99.90
24772;DHT22;12870;52.274;9.754;2024-03-29T11:47:54;14.40;99.90
24772;DHT22;12870;52.274;9.754;2024-03-29T11:50:20;14.50;99.90
24772;DHT22;12870;52.274;9.754;2024-03-29T11:52:46;14.60;99.90
24772;DHT22;12870;52.274;9.754;2024-03-29T11:55:11;14.80;99.90
24772;DHT22;12870;52.274;9.754;2024-03-29T11:57:37;14.60;99.90
24772;DHT22;12870;52.274;9.754;2024-03-29T12:00:07;14.50;99.90
24772;DHT22;12870;52.274;9.754;2024-03-29T12:02:35;14.50;99.90
24772;DHT22;12870;52.274;9.754;2024-03-29T12:05:04;14.70;99.90
24772;DHT22;12870;52.274;9.754;2024-03-29T12:07:30;14.90;99.90
24772;DHT22;12870;52.274;9.754;2024-03-29T12:09:55;15.20;99.90
24772;DHT22;12870;52.274;9.754;2024-03-29T12:12:21;15.40;99.90
24772;DHT22;12870;52.274;9.754;2024-03-29T12:14:46;15.50;99.90
24772;DHT22;12870;52.274;9.754;2024-03-29T12:17:13;15.70;99.90
24772;DHT22;12870;52.274;9.754;2024-03-29T12:19:38;15.80;99.90
24772;DHT22;12870;52.274;9.754;2024-03-29T12:22:08;16.20;99.90
24772;DHT22;12870;52.274;9.754;2024-03-29T12:24:33;16.40;99.90
24772;DHT22;12870;52.274;9.754;2024-03-29T12:26:59;16.50;99.90
24772;DHT22;12870;52.274;9.754;2024-03-29T12:29:25;16.00;99.90
24772;DHT22;12870;52.274;9.754;2024-03-29T12:32:01;15.80;99.90
24772;DHT22;12870;52.274;9.754;2024-03-29T12:34:27;15.70;99.90
24772;DHT22;12870;52.274;9.754;2024-03-29T12:36:52;15.70;99.90
24772;DHT22;12870;52.274;9.754;2024-03-29T12:39:18;15.60;99.90
24772;DHT22;12870;52.274;9.754;2024-03-29T12:41:46;15.50;99.90
24772;DHT22;12870;52.274;9.754;2024-03-29T12:44:12;15.30;99.90
24772;DHT22;12870;52.274;9.754;2024-03-29T12:46:37;15.20;99.90
24772;DHT22;12870;52.274;9.754;2024-03-29T12:49:03;15.30;99.90
24772;DHT22;12870;52.274;9.754;2024-03-29T12:51:29;15.20;99.90
24772;DHT22;12870;52.274;9.754;2024-03-29T12:53:55;15.10;99.90
24772;DHT22;12870;52.274;9.754;2024-03-29T12:56:22;15.20;99.90
24772;DHT22;12870;52.274;9.754;2024-03-29T12:58:48;15.00;99.90
24772;DHT22;12870;52.274;9.754;2024-03-29T13:01:13;15.00;99.90
24772;DHT22;12870;52.274;9.754;2024-03-29T13:03:39;14.90;99.90
24772;DHT22;12870;52.274;9.754;2024-03-29T13:06:06;14.90;99.90
24772;DHT22;12870;52.274;9.754;2024-03-29T13:08:32;15.00;99.90
24772;DHT22;12870;52.274;9.754;2024-03-29T13:10:58;15.00;99.90
24772;DHT22;12870;52.274;9.754;2024-03-29T13:13:23;15.00;99.90
24772;DHT22;12870;52.274;9.754;2024-03-29T13:15:49;15.10;99.90
24772;DHT22;12870;52.274;9.754;2024-03-29T13:18:16;15.00;99.90
24772;DHT22;12870;52.274;9.754;2024-03-29T13:20:42;15.10;99.90
24772;DHT22;12870;52.274;9.754;2024-03-29T13:23:08;14.90;99.90
24772;DHT22;12870;52.274;9.754;2024-03-29T13:25:34;15.00;99.90
24772;DHT22;12870;52.274;9.754;2024-03-29T13:27:59;15.00;99.90
24772;DHT22;12870;52.274;9.754;2024-03-29T13:30:26;15.00;99.90
24772;DHT22;12870;52.274;9.754;2024-03-29T13:32:52;14.90;99.90
24772;DHT22;12870;52.274;9.754;2024-03-29T13:35:19;14.90;99.90
24772;DHT22;12870;52.274;9.754;2024-03-29T13:37:47;14.80;99.90
24772;DHT22;12870;52.274;9.754;2024-03-29T13:40:14;14.70;99.90
24772;DHT22;12870;52.274;9.754;2024-03-29T13:42:40;14.80;99.90
24772;DHT22;12870;52.274;9.754;2024-03-29T13:45:07;15.00;99.90
24772;DHT22;12870;52.274;9.754;2024-03-29T13:47:33;15.00;99.90
24772;DHT22;12870;52.274;9.754;2024-03-29T13:49:59;15.20;99.90
24772;DHT22;12870;52.274;9.754;2024-03-29T13:52:25;15.40;99.90
24772;DHT22;12870;52.274;9.754;2024-03-29T13:54:53;16.00;99.90
24772;DHT22;12870;52.274;9.754;2024-03-29T13:57:19;16.40;99.90
24772;DHT22;12870;52.274;9.754;2024-03-29T13:59:45;16.70;99.90
24772;DHT22;12870;52.274;9.754;2024-03-29T14:02:11;17.10;99.90
24772;DHT22;12870;52.274;9.754;2024-03-29T14:04:38;17.40;99.90
24772;DHT22;12870;52.274;9.754;2024-03-29T14:07:04;17.10;99.90
24772;DHT22;12870;52.274;9.754;2024-03-29T14:09:33;16.90;99.90
24772;DHT22;12870;52.274;9.754;2024-03-29T14:11:59;16.70;99.90
24772;DHT22;12870;52.274;9.754;2024-03-29T14:14:24;16.50;99.90
24772;DHT22;12870;52.274;9.754;2024-03-29T14:16:50;16.50;99.90
24772;DHT22;12870;52.274;9.754;2024-03-29T14:19:15;16.20;99.90
24772;DHT22;12870;52.274;9.754;2024-03-29T14:21:41;16.20;99.90
24772;DHT22;12870;52.274;9.754;2024-03-29T14:24:06;16.20;99.90
24772;DHT22;12870;52.274;9.754;2024-03-29T14:26:32;16.30;99.90
24772;DHT22;12870;52.274;9.754;2024-03-29T14:28:57;16.40;99.90
24772;DHT22;12870;52.274;9.754;2024-03-29T14:31:23;16.70;99.90
24772;DHT22;12870;52.274;9.754;2024-03-29T14:33:48;16.90;99.90
24772;DHT22;12870;52.274;9.754;2024-03-29T14:36:14;17.30;99.90
24772;DHT22;12870;52.274;9.754;2024-03-29T14:38:40;17.40;99.90
24772;DHT22;12870;52.274;9.754;2024-03-29T14:41:05;17.30;99.90
24772;DHT22;12870;52.274;9.754;2024-03-29T14:43:31;17.00;99.90
24772;DHT22;12870;52.274;9.754;2024-03-29T14:45:57;17.10;99.90
24772;DHT22;12870;52.274;9.754;2024-03-29T14:48:25;17.10;99.90
24772;DHT22;12870;52.274;9.754;2024-03-29T14:50:50;17.20;99.90
24772;DHT22;12870;52.274;9.754;2024-03-29T14:53:16;17.10;99.90
24772;DHT22;12870;52.274;9.754;2024-03-29T14:55:41;17.20;99.90
24772;DHT22;12870;52.274;9.754;2024-03-29T14:58:07;17.70;99.90
24772;DHT22;12870;52.274;9.754;2024-03-29T15:00:32;17.80;99.90
24772;DHT22;12870;52.274;9.754;2024-03-29T15:02:58;18.40;99.90
24772;DHT22;12870;52.274;9.754;2024-03-29T15:05:24;18.70;99.90
24772;DHT22;12870;52.274;9.754;2024-03-29T15:07:51;18.70;99.90
24772;DHT22;12870;52.274;9.754;2024-03-29T15:10:17;18.90;99.90
24772;DHT22;12870;52.274;9.754;2024-03-29T15:12:44;19.20;99.90
24772;DHT22;12870;52.274;9.754;2024-03-29T15:15:12;19.30;99.90
24772;DHT22;12870;52.274;9.754;2024-03-29T15:17:37;19.10;99.90
24772;DHT22;12870;52.274;9.754;2024-03-29T15:20:04;19.00;99.90
24772;DHT22;12870;52.274;9.754;2024-03-29T15:22:31;18.30;99.90
24772;DHT22;12870;52.274;9.754;2024-03-29T15:24:58;18.10;99.90
24772;DHT22;12870;52.274;9.754;2024-03-29T15:27:24;17.40;99.90
24772;DHT22;12870;52.274;9.754;2024-03-29T15:30:14;17.20;99.90
24772;DHT22;12870;52.274;9.754;2024-03-29T15:32:39;17.70;99.90
24772;DHT22;12870;52.274;9.754;2024-03-29T15:35:05;18.30;99.90
24772;DHT22;12870;52.274;9.754;2024-03-29T15:37:31;18.40;99.90
24772;DHT22;12870;52.274;9.754;2024-03-29T15:39:58;18.40;99.90